GMAD/AGA METAR and TAF weather

Enter ICAO airport designator
Station Type Date Time Source
GMAD METAR 2022/11/30 16:00 UTC NOAA

GMAD 301600Z 26010KT CAVOK 21/14 Q1014 NIOSIG


Station Type Date Time Source
GMAD Decoded METAR 2022/11/30 16:00 UTC NOAA

Agadir Al Massira, Morocco (GMAD) 30-20N 009-24W 74M
Nov 30, 2022 - 11:00 AM EST / 2022.11.30 1600 UTC
Wind: from the W (260 degrees) at 12 MPH (10 KT):0
Visibility: greater than 7 mile(s):0
Temperature: 69 F (21 C)
Dew Point: 57 F (14 C)
Relative Humidity: 64%
Pressure (altimeter): 29.94 in. Hg (1014 hPa)
ob: GMAD 301600Z 26010KT CAVOK 21/14 Q1014 NIOSIG
cycle: 16

Station Type Date Time Source
GMAD TAF 2022/11/30 12:21 UTC NOAA

TAF GMAD 301100Z 3012/0118 26010KT 8000 BKN016
TEMPO 3019/3024 3000 BR BKN010

Example: see airport list